sensor_id;sensor_type;location;lat;lon;timestamp;temperature;humidity
13970;DHT22;7057;49.984;8.404;2023-05-08T00:00:42;15.40;99.90
13970;DHT22;7057;49.984;8.404;2023-05-08T00:03:10;15.40;99.90
13970;DHT22;7057;49.984;8.404;2023-05-08T00:05:37;15.40;99.90
13970;DHT22;7057;49.984;8.404;2023-05-08T00:08:08;15.40;99.90
13970;DHT22;7057;49.984;8.404;2023-05-08T00:10:35;15.30;99.90
13970;DHT22;7057;49.984;8.404;2023-05-08T00:13:02;15.40;99.90
13970;DHT22;7057;49.984;8.404;2023-05-08T00:15:29;15.30;99.90
13970;DHT22;7057;49.984;8.404;2023-05-08T00:17:56;15.20;99.90
13970;DHT22;7057;49.984;8.404;2023-05-08T00:20:24;15.20;99.90
13970;DHT22;7057;49.984;8.404;2023-05-08T00:22:51;15.20;99.90
13970;DHT22;7057;49.984;8.404;2023-05-08T00:25:19;15.20;99.90
13970;DHT22;7057;49.984;8.404;2023-05-08T00:27:46;15.20;99.90
13970;DHT22;7057;49.984;8.404;2023-05-08T00:30:14;15.10;99.90
13970;DHT22;7057;49.984;8.404;2023-05-08T00:32:41;15.10;99.90
13970;DHT22;7057;49.984;8.404;2023-05-08T00:35:08;15.00;99.90
13970;DHT22;7057;49.984;8.404;2023-05-08T00:37:35;15.00;99.90
13970;DHT22;7057;49.984;8.404;2023-05-08T00:40:06;15.00;99.90
13970;DHT22;7057;49.984;8.404;2023-05-08T00:42:35;14.90;99.90
13970;DHT22;7057;49.984;8.404;2023-05-08T00:45:03;14.90;99.90
13970;DHT22;7057;49.984;8.404;2023-05-08T00:47:30;14.90;99.90
13970;DHT22;7057;49.984;8.404;2023-05-08T00:49:59;14.90;99.90
13970;DHT22;7057;49.984;8.404;2023-05-08T00:52:28;14.90;99.90
13970;DHT22;7057;49.984;8.404;2023-05-08T00:54:56;14.90;99.90
13970;DHT22;7057;49.984;8.404;2023-05-08T00:57:24;14.90;99.90
13970;DHT22;7057;49.984;8.404;2023-05-08T00:59:54;14.90;99.90
13970;DHT22;7057;49.984;8.404;2023-05-08T01:02:22;15.00;99.90
13970;DHT22;7057;49.984;8.404;2023-05-08T01:04:50;14.90;99.90
13970;DHT22;7057;49.984;8.404;2023-05-08T01:07:18;14.90;99.90
13970;DHT22;7057;49.984;8.404;2023-05-08T01:09:45;14.80;99.90
13970;DHT22;7057;49.984;8.404;2023-05-08T01:12:16;14.90;99.90
13970;DHT22;7057;49.984;8.404;2023-05-08T01:15:05;14.80;99.90
13970;DHT22;7057;49.984;8.404;2023-05-08T01:17:42;14.80;99.90
13970;DHT22;7057;49.984;8.404;2023-05-08T01:20:22;14.70;99.90
13970;DHT22;7057;49.984;8.404;2023-05-08T01:23:15;14.70;99.90
13970;DHT22;7057;49.984;8.404;2023-05-08T01:26:19;14.60;99.90
13970;DHT22;7057;49.984;8.404;2023-05-08T01:29:15;14.60;99.90
13970;DHT22;7057;49.984;8.404;2023-05-08T01:32:03;14.60;99.90
13970;DHT22;7057;49.984;8.404;2023-05-08T01:34:32;14.50;99.90
13970;DHT22;7057;49.984;8.404;2023-05-08T01:37:02;14.50;99.90
13970;DHT22;7057;49.984;8.404;2023-05-08T01:39:37;14.50;99.90
13970;DHT22;7057;49.984;8.404;2023-05-08T01:42:09;14.50;99.90
13970;DHT22;7057;49.984;8.404;2023-05-08T01:44:44;14.50;99.90
13970;DHT22;7057;49.984;8.404;2023-05-08T01:47:14;14.50;99.90
13970;DHT22;7057;49.984;8.404;2023-05-08T01:49:45;14.40;99.90
13970;DHT22;7057;49.984;8.404;2023-05-08T01:52:17;14.40;99.90
13970;DHT22;7057;49.984;8.404;2023-05-08T01:54:52;14.40;99.90
13970;DHT22;7057;49.984;8.404;2023-05-08T01:57:23;14.40;99.90
13970;DHT22;7057;49.984;8.404;2023-05-08T01:59:53;14.40;99.90
13970;DHT22;7057;49.984;8.404;2023-05-08T02:02:23;14.40;99.90
13970;DHT22;7057;49.984;8.404;2023-05-08T02:04:51;14.30;99.90
13970;DHT22;7057;49.984;8.404;2023-05-08T02:07:22;14.30;99.90
13970;DHT22;7057;49.984;8.404;2023-05-08T02:09:50;14.30;99.90
13970;DHT22;7057;49.984;8.404;2023-05-08T02:12:18;14.40;99.90
13970;DHT22;7057;49.984;8.404;2023-05-08T02:14:47;14.30;99.90
13970;DHT22;7057;49.984;8.404;2023-05-08T02:17:16;14.40;99.90
13970;DHT22;7057;49.984;8.404;2023-05-08T02:19:46;14.30;99.90
13970;DHT22;7057;49.984;8.404;2023-05-08T02:22:16;14.30;99.90
13970;DHT22;7057;49.984;8.404;2023-05-08T02:24:44;14.30;99.90
13970;DHT22;7057;49.984;8.404;2023-05-08T02:27:12;14.30;99.90
13970;DHT22;7057;49.984;8.404;2023-05-08T02:29:41;14.30;99.90
13970;DHT22;7057;49.984;8.404;2023-05-08T02:32:08;14.30;99.90
13970;DHT22;7057;49.984;8.404;2023-05-08T02:34:37;14.30;99.90
13970;DHT22;7057;49.984;8.404;2023-05-08T02:37:06;14.20;99.90
13970;DHT22;7057;49.984;8.404;2023-05-08T02:39:34;14.20;99.90
13970;DHT22;7057;49.984;8.404;2023-05-08T02:42:03;14.20;99.90
13970;DHT22;7057;49.984;8.404;2023-05-08T02:44:30;14.20;99.90
13970;DHT22;7057;49.984;8.404;2023-05-08T02:46:59;14.20;99.90
13970;DHT22;7057;49.984;8.404;2023-05-08T02:49:41;14.20;99.90
13970;DHT22;7057;49.984;8.404;2023-05-08T02:52:12;14.20;99.90
13970;DHT22;7057;49.984;8.404;2023-05-08T02:54:49;14.20;99.90
13970;DHT22;7057;49.984;8.404;2023-05-08T02:57:21;14.20;99.90
13970;DHT22;7057;49.984;8.404;2023-05-08T02:59:55;14.20;99.90
13970;DHT22;7057;49.984;8.404;2023-05-08T03:02:27;14.20;99.90
13970;DHT22;7057;49.984;8.404;2023-05-08T03:05:01;14.20;99.90
13970;DHT22;7057;49.984;8.404;2023-05-08T03:07:31;14.20;99.90
13970;DHT22;7057;49.984;8.404;2023-05-08T03:10:04;14.20;99.90
13970;DHT22;7057;49.984;8.404;2023-05-08T03:12:38;14.20;99.90
13970;DHT22;7057;49.984;8.404;2023-05-08T03:15:13;14.20;99.90
13970;DHT22;7057;49.984;8.404;2023-05-08T03:17:42;14.20;99.90
13970;DHT22;7057;49.984;8.404;2023-05-08T03:20:14;14.10;99.90
13970;DHT22;7057;49.984;8.404;2023-05-08T03:22:45;14.20;99.90
13970;DHT22;7057;49.984;8.404;2023-05-08T03:25:16;14.20;99.90
13970;DHT22;7057;49.984;8.404;2023-05-08T03:27:45;14.20;99.90
13970;DHT22;7057;49.984;8.404;2023-05-08T03:30:13;14.20;99.90
13970;DHT22;7057;49.984;8.404;2023-05-08T03:32:41;14.10;99.90
13970;DHT22;7057;49.984;8.404;2023-05-08T03:35:12;14.10;99.90
13970;DHT22;7057;49.984;8.404;2023-05-08T03:37:39;14.00;99.90
13970;DHT22;7057;49.984;8.404;2023-05-08T03:40:09;14.00;99.90
13970;DHT22;7057;49.984;8.404;2023-05-08T03:42:37;14.00;99.90
13970;DHT22;7057;49.984;8.404;2023-05-08T03:45:07;14.10;99.90
13970;DHT22;7057;49.984;8.404;2023-05-08T03:47:35;14.00;99.90
13970;DHT22;7057;49.984;8.404;2023-05-08T03:50:04;14.10;99.90
13970;DHT22;7057;49.984;8.404;2023-05-08T03:52:31;14.00;99.90
13970;DHT22;7057;49.984;8.404;2023-05-08T03:54:59;14.00;99.90
13970;DHT22;7057;49.984;8.404;2023-05-08T03:57:33;14.00;99.90
13970;DHT22;7057;49.984;8.404;2023-05-08T04:00:05;14.00;99.90
13970;DHT22;7057;49.984;8.404;2023-05-08T04:02:40;14.00;99.90
13970;DHT22;7057;49.984;8.404;2023-05-08T04:05:27;14.10;99.90
13970;DHT22;7057;49.984;8.404;2023-05-08T04:08:03;14.00;99.90
13970;DHT22;7057;49.984;8.404;2023-05-08T04:10:37;14.10;99.90
13970;DHT22;7057;49.984;8.404;2023-05-08T04:13:12;14.10;99.90
13970;DHT22;7057;49.984;8.404;2023-05-08T04:15:46;14.10;99.90
13970;DHT22;7057;49.984;8.404;2023-05-08T04:18:17;14.10;99.90
13970;DHT22;7057;49.984;8.404;2023-05-08T04:20:46;14.10;99.90
13970;DHT22;7057;49.984;8.404;2023-05-08T04:23:18;14.10;99.90
13970;DHT22;7057;49.984;8.404;2023-05-08T04:25:47;14.00;99.90
13970;DHT22;7057;49.984;8.404;2023-05-08T04:28:16;14.00;99.90
13970;DHT22;7057;49.984;8.404;2023-05-08T04:30:44;14.00;99.90
13970;DHT22;7057;49.984;8.404;2023-05-08T04:33:13;14.00;99.90
13970;DHT22;7057;49.984;8.404;2023-05-08T04:35:41;13.90;99.90
13970;DHT22;7057;49.984;8.404;2023-05-08T04:38:08;13.90;99.90
13970;DHT22;7057;49.984;8.404;2023-05-08T04:40:35;13.90;99.90
13970;DHT22;7057;49.984;8.404;2023-05-08T04:43:02;13.90;99.90
13970;DHT22;7057;49.984;8.404;2023-05-08T04:45:31;13.80;99.90
13970;DHT22;7057;49.984;8.404;2023-05-08T04:47:58;13.80;99.90
13970;DHT22;7057;49.984;8.404;2023-05-08T04:50:25;13.70;99.90
13970;DHT22;7057;49.984;8.404;2023-05-08T04:52:52;13.70;99.90
13970;DHT22;7057;49.984;8.404;2023-05-08T04:55:20;13.70;99.90
13970;DHT22;7057;49.984;8.404;2023-05-08T04:57:47;13.70;99.90
13970;DHT22;7057;49.984;8.404;2023-05-08T05:00:15;13.50;99.90
13970;DHT22;7057;49.984;8.404;2023-05-08T05:02:44;13.60;99.90
13970;DHT22;7057;49.984;8.404;2023-05-08T05:05:11;13.60;99.90
13970;DHT22;7057;49.984;8.404;2023-05-08T05:07:38;13.60;99.90
13970;DHT22;7057;49.984;8.404;2023-05-08T05:10:06;13.60;99.90
13970;DHT22;7057;49.984;8.404;2023-05-08T05:12:33;13.70;99.90
13970;DHT22;7057;49.984;8.404;2023-05-08T05:15:00;13.70;99.90
13970;DHT22;7057;49.984;8.404;2023-05-08T05:17:29;13.70;99.90
13970;DHT22;7057;49.984;8.404;2023-05-08T05:19:58;13.80;99.90
13970;DHT22;7057;49.984;8.404;2023-05-08T05:22:25;13.80;99.90
13970;DHT22;7057;49.984;8.404;2023-05-08T05:24:53;13.80;99.90
13970;DHT22;7057;49.984;8.404;2023-05-08T05:27:20;13.80;99.90
13970;DHT22;7057;49.984;8.404;2023-05-08T05:29:47;13.80;99.90
13970;DHT22;7057;49.984;8.404;2023-05-08T05:32:15;13.80;99.90
13970;DHT22;7057;49.984;8.404;2023-05-08T05:34:42;13.80;99.90
13970;DHT22;7057;49.984;8.404;2023-05-08T05:37:11;13.80;99.90
13970;DHT22;7057;49.984;8.404;2023-05-08T05:39:38;13.90;99.90
13970;DHT22;7057;49.984;8.404;2023-05-08T05:42:05;13.90;99.90
13970;DHT22;7057;49.984;8.404;2023-05-08T05:44:32;13.90;99.90
13970;DHT22;7057;49.984;8.404;2023-05-08T05:46:59;14.00;99.90
13970;DHT22;7057;49.984;8.404;2023-05-08T05:49:26;14.00;99.90
13970;DHT22;7057;49.984;8.404;2023-05-08T05:51:53;14.00;99.90
13970;DHT22;7057;49.984;8.404;2023-05-08T05:54:22;14.00;99.90
13970;DHT22;7057;49.984;8.404;2023-05-08T05:56:49;14.00;99.90
13970;DHT22;7057;49.984;8.404;2023-05-08T05:59:16;14.10;99.90
13970;DHT22;7057;49.984;8.404;2023-05-08T06:01:43;14.10;99.90
13970;DHT22;7057;49.984;8.404;2023-05-08T06:04:11;14.10;99.90
13970;DHT22;7057;49.984;8.404;2023-05-08T06:06:38;14.10;99.90
13970;DHT22;7057;49.984;8.404;2023-05-08T06:09:05;14.10;99.90
13970;DHT22;7057;49.984;8.404;2023-05-08T06:11:34;14.20;99.90
13970;DHT22;7057;49.984;8.404;2023-05-08T06:14:01;14.10;99.90
13970;DHT22;7057;49.984;8.404;2023-05-08T06:16:28;14.10;99.90
13970;DHT22;7057;49.984;8.404;2023-05-08T06:18:55;14.10;99.90
13970;DHT22;7057;49.984;8.404;2023-05-08T06:21:23;14.20;99.90
13970;DHT22;7057;49.984;8.404;2023-05-08T06:23:50;14.10;99.90
13970;DHT22;7057;49.984;8.404;2023-05-08T06:26:17;14.20;99.90
13970;DHT22;7057;49.984;8.404;2023-05-08T06:28:45;14.20;99.90
13970;DHT22;7057;49.984;8.404;2023-05-08T06:31:12;14.20;99.90
13970;DHT22;7057;49.984;8.404;2023-05-08T06:33:40;14.20;99.90
13970;DHT22;7057;49.984;8.404;2023-05-08T06:36:07;14.20;99.90
13970;DHT22;7057;49.984;8.404;2023-05-08T06:38:34;14.30;99.90
13970;DHT22;7057;49.984;8.404;2023-05-08T06:41:01;14.40;99.90
13970;DHT22;7057;49.984;8.404;2023-05-08T06:43:29;14.40;99.90
13970;DHT22;7057;49.984;8.404;2023-05-08T06:45:57;14.50;99.90
13970;DHT22;7057;49.984;8.404;2023-05-08T06:48:25;14.50;99.90
13970;DHT22;7057;49.984;8.404;2023-05-08T06:50:54;14.60;99.90
13970;DHT22;7057;49.984;8.404;2023-05-08T06:53:21;14.60;99.90
13970;DHT22;7057;49.984;8.404;2023-05-08T06:55:48;14.60;99.90
13970;DHT22;7057;49.984;8.404;2023-05-08T06:58:15;14.80;99.90
13970;DHT22;7057;49.984;8.404;2023-05-08T07:00:42;14.90;99.90
13970;DHT22;7057;49.984;8.404;2023-05-08T07:03:11;15.00;99.90
13970;DHT22;7057;49.984;8.404;2023-05-08T07:05:38;15.10;99.90
13970;DHT22;7057;49.984;8.404;2023-05-08T07:08:05;15.10;99.90
13970;DHT22;7057;49.984;8.404;2023-05-08T07:10:32;15.10;99.90
13970;DHT22;7057;49.984;8.404;2023-05-08T07:13:00;15.00;99.90
13970;DHT22;7057;49.984;8.404;2023-05-08T07:15:27;14.90;99.90
13970;DHT22;7057;49.984;8.404;2023-05-08T07:17:54;14.80;99.90
13970;DHT22;7057;49.984;8.404;2023-05-08T07:20:23;14.80;99.90
13970;DHT22;7057;49.984;8.404;2023-05-08T07:22:50;14.80;99.90
13970;DHT22;7057;49.984;8.404;2023-05-08T07:25:17;14.80;99.90
13970;DHT22;7057;49.984;8.404;2023-05-08T07:27:44;14.90;99.90
13970;DHT22;7057;49.984;8.404;2023-05-08T07:30:12;14.90;99.90
13970;DHT22;7057;49.984;8.404;2023-05-08T07:32:39;15.00;99.90
13970;DHT22;7057;49.984;8.404;2023-05-08T07:35:07;15.00;99.90
13970;DHT22;7057;49.984;8.404;2023-05-08T07:37:38;15.00;99.90
13970;DHT22;7057;49.984;8.404;2023-05-08T07:40:07;15.20;99.90
13970;DHT22;7057;49.984;8.404;2023-05-08T07:42:38;15.40;99.90
13970;DHT22;7057;49.984;8.404;2023-05-08T07:45:06;15.60;99.90
13970;DHT22;7057;49.984;8.404;2023-05-08T07:47:34;15.90;99.90
13970;DHT22;7057;49.984;8.404;2023-05-08T07:50:01;15.90;99.90
13970;DHT22;7057;49.984;8.404;2023-05-08T07:52:29;16.10;99.90
13970;DHT22;7057;49.984;8.404;2023-05-08T07:54:58;16.30;99.90
13970;DHT22;7057;49.984;8.404;2023-05-08T07:57:25;16.40;99.90
13970;DHT22;7057;49.984;8.404;2023-05-08T07:59:52;16.20;99.90
13970;DHT22;7057;49.984;8.404;2023-05-08T08:02:19;16.10;99.90
13970;DHT22;7057;49.984;8.404;2023-05-08T08:04:46;16.00;99.90
13970;DHT22;7057;49.984;8.404;2023-05-08T08:07:14;16.10;99.90
13970;DHT22;7057;49.984;8.404;2023-05-08T08:09:41;16.10;99.90
13970;DHT22;7057;49.984;8.404;2023-05-08T08:12:10;16.20;99.90
13970;DHT22;7057;49.984;8.404;2023-05-08T08:14:37;16.40;99.90
13970;DHT22;7057;49.984;8.404;2023-05-08T08:17:04;16.20;99.90
13970;DHT22;7057;49.984;8.404;2023-05-08T08:19:31;16.20;99.90
13970;DHT22;7057;49.984;8.404;2023-05-08T08:21:59;16.30;99.90
13970;DHT22;7057;49.984;8.404;2023-05-08T08:24:26;16.40;99.90
13970;DHT22;7057;49.984;8.404;2023-05-08T08:26:54;16.50;99.90
13970;DHT22;7057;49.984;8.404;2023-05-08T08:29:22;16.40;99.90
13970;DHT22;7057;49.984;8.404;2023-05-08T08:31:49;16.30;99.90
13970;DHT22;7057;49.984;8.404;2023-05-08T08:34:16;16.00;99.90
13970;DHT22;7057;49.984;8.404;2023-05-08T08:36:44;16.00;99.90
13970;DHT22;7057;49.984;8.404;2023-05-08T08:39:11;16.30;99.90
13970;DHT22;7057;49.984;8.404;2023-05-08T08:41:38;16.50;99.90
13970;DHT22;7057;49.984;8.404;2023-05-08T08:44:05;16.90;99.90
13970;DHT22;7057;49.984;8.404;2023-05-08T08:46:37;17.00;99.90
13970;DHT22;7057;49.984;8.404;2023-05-08T08:49:08;16.90;99.90
13970;DHT22;7057;49.984;8.404;2023-05-08T08:51:43;17.00;99.90
13970;DHT22;7057;49.984;8.404;2023-05-08T08:54:13;17.30;99.90
13970;DHT22;7057;49.984;8.404;2023-05-08T08:56:43;17.20;99.90
13970;DHT22;7057;49.984;8.404;2023-05-08T08:59:12;17.20;99.90
13970;DHT22;7057;49.984;8.404;2023-05-08T09:01:44;17.10;99.90
13970;DHT22;7057;49.984;8.404;2023-05-08T09:04:15;17.10;99.90
13970;DHT22;7057;49.984;8.404;2023-05-08T09:06:43;17.00;99.90
13970;DHT22;7057;49.984;8.404;2023-05-08T09:09:11;16.90;99.90
13970;DHT22;7057;49.984;8.404;2023-05-08T09:11:39;17.00;99.90
13970;DHT22;7057;49.984;8.404;2023-05-08T09:14:07;17.00;99.90
13970;DHT22;7057;49.984;8.404;2023-05-08T09:16:34;16.90;99.90
13970;DHT22;7057;49.984;8.404;2023-05-08T09:19:03;17.10;99.90
13970;DHT22;7057;49.984;8.404;2023-05-08T09:21:31;16.90;99.90
13970;DHT22;7057;49.984;8.404;2023-05-08T09:23:59;17.00;99.90
13970;DHT22;7057;49.984;8.404;2023-05-08T09:26:28;17.00;99.90
13970;DHT22;7057;49.984;8.404;2023-05-08T09:29:13;17.00;99.90
13970;DHT22;7057;49.984;8.404;2023-05-08T09:31:42;17.10;99.90
13970;DHT22;7057;49.984;8.404;2023-05-08T09:34:12;17.10;99.90
13970;DHT22;7057;49.984;8.404;2023-05-08T09:36:48;16.80;99.90
13970;DHT22;7057;49.984;8.404;2023-05-08T09:39:21;16.70;99.90
13970;DHT22;7057;49.984;8.404;2023-05-08T09:41:58;16.70;99.90
13970;DHT22;7057;49.984;8.404;2023-05-08T09:44:25;16.70;99.90
13970;DHT22;7057;49.984;8.404;2023-05-08T09:47:09;16.60;99.90
13970;DHT22;7057;49.984;8.404;2023-05-08T09:49:38;16.70;99.90
13970;DHT22;7057;49.984;8.404;2023-05-08T09:52:05;16.80;99.90
13970;DHT22;7057;49.984;8.404;2023-05-08T09:54:33;16.90;99.90
13970;DHT22;7057;49.984;8.404;2023-05-08T09:57:10;17.30;99.90
13970;DHT22;7057;49.984;8.404;2023-05-08T09:59:37;17.50;99.90
13970;DHT22;7057;49.984;8.404;2023-05-08T10:02:09;17.30;99.90
13970;DHT22;7057;49.984;8.404;2023-05-08T10:04:38;17.60;99.90
13970;DHT22;7057;49.984;8.404;2023-05-08T10:07:05;17.50;99.90
13970;DHT22;7057;49.984;8.404;2023-05-08T10:09:32;17.60;99.90
13970;DHT22;7057;49.984;8.404;2023-05-08T10:11:59;17.50;99.90
13970;DHT22;7057;49.984;8.404;2023-05-08T10:14:27;17.50;99.90
13970;DHT22;7057;49.984;8.404;2023-05-08T10:16:54;17.80;99.90
13970;DHT22;7057;49.984;8.404;2023-05-08T10:19:22;18.00;99.90
13970;DHT22;7057;49.984;8.404;2023-05-08T10:21:52;18.30;99.90
13970;DHT22;7057;49.984;8.404;2023-05-08T10:24:20;18.50;99.90
13970;DHT22;7057;49.984;8.404;2023-05-08T10:26:53;18.70;99.90
13970;DHT22;7057;49.984;8.404;2023-05-08T10:29:27;18.50;99.90
13970;DHT22;7057;49.984;8.404;2023-05-08T10:31:58;18.30;99.90
13970;DHT22;7057;49.984;8.404;2023-05-08T10:34:27;18.70;99.90
13970;DHT22;7057;49.984;8.404;2023-05-08T10:36:58;19.10;99.90
13970;DHT22;7057;49.984;8.404;2023-05-08T10:39:26;19.30;99.90
13970;DHT22;7057;49.984;8.404;2023-05-08T10:41:55;18.90;99.90
13970;DHT22;7057;49.984;8.404;2023-05-08T10:44:22;18.60;99.90
13970;DHT22;7057;49.984;8.404;2023-05-08T10:46:53;18.70;99.90
13970;DHT22;7057;49.984;8.404;2023-05-08T10:49:33;18.90;99.90
13970;DHT22;7057;49.984;8.404;2023-05-08T10:52:14;18.90;99.90
13970;DHT22;7057;49.984;8.404;2023-05-08T10:54:57;18.70;99.90
13970;DHT22;7057;49.984;8.404;2023-05-08T10:57:31;18.50;99.90
13970;DHT22;7057;49.984;8.404;2023-05-08T10:59:58;18.60;99.90
13970;DHT22;7057;49.984;8.404;2023-05-08T11:02:26;18.50;99.90
13970;DHT22;7057;49.984;8.404;2023-05-08T11:04:54;18.50;99.90
13970;DHT22;7057;49.984;8.404;2023-05-08T11:07:53;18.30;99.90
13970;DHT22;7057;49.984;8.404;2023-05-08T11:10:21;18.70;99.90
13970;DHT22;7057;49.984;8.404;2023-05-08T11:12:49;18.80;99.90
13970;DHT22;7057;49.984;8.404;2023-05-08T11:15:34;18.90;99.90
13970;DHT22;7057;49.984;8.404;2023-05-08T11:18:03;19.10;99.90
13970;DHT22;7057;49.984;8.404;2023-05-08T11:20:37;19.20;99.90
13970;DHT22;7057;49.984;8.404;2023-05-08T11:23:21;18.80;99.90
13970;DHT22;7057;49.984;8.404;2023-05-08T11:25:58;18.70;99.90
13970;DHT22;7057;49.984;8.404;2023-05-08T11:28:26;18.80;99.90
13970;DHT22;7057;49.984;8.404;2023-05-08T11:30:54;19.00;99.90
13970;DHT22;7057;49.984;8.404;2023-05-08T11:33:22;19.10;99.90
13970;DHT22;7057;49.984;8.404;2023-05-08T11:35:51;19.20;99.90
13970;DHT22;7057;49.984;8.404;2023-05-08T11:38:26;19.30;99.90
13970;DHT22;7057;49.984;8.404;2023-05-08T11:40:58;19.20;99.90
13970;DHT22;7057;49.984;8.404;2023-05-08T11:43:33;19.20;99.90
13970;DHT22;7057;49.984;8.404;2023-05-08T11:46:03;19.40;99.90
13970;DHT22;7057;49.984;8.404;2023-05-08T11:48:32;19.40;99.90
13970;DHT22;7057;49.984;8.404;2023-05-08T11:50:59;19.20;99.90
13970;DHT22;7057;49.984;8.404;2023-05-08T11:53:28;19.30;99.90
13970;DHT22;7057;49.984;8.404;2023-05-08T11:55:56;19.50;99.90
13970;DHT22;7057;49.984;8.404;2023-05-08T11:58:25;19.70;99.90
13970;DHT22;7057;49.984;8.404;2023-05-08T12:00:52;19.80;99.90
13970;DHT22;7057;49.984;8.404;2023-05-08T12:03:21;20.10;99.90
13970;DHT22;7057;49.984;8.404;2023-05-08T12:05:50;20.40;99.90
13970;DHT22;7057;49.984;8.404;2023-05-08T12:08:19;20.40;99.90
13970;DHT22;7057;49.984;8.404;2023-05-08T12:10:51;20.40;99.90
13970;DHT22;7057;49.984;8.404;2023-05-08T12:13:20;20.30;99.90
13970;DHT22;7057;49.984;8.404;2023-05-08T12:15:48;20.00;99.90
13970;DHT22;7057;49.984;8.404;2023-05-08T12:18:16;20.10;99.90
13970;DHT22;7057;49.984;8.404;2023-05-08T12:20:43;20.10;99.90
13970;DHT22;7057;49.984;8.404;2023-05-08T12:23:10;20.00;99.90
13970;DHT22;7057;49.984;8.404;2023-05-08T12:25:38;19.80;99.90
13970;DHT22;7057;49.984;8.404;2023-05-08T12:28:07;19.70;99.90
13970;DHT22;7057;49.984;8.404;2023-05-08T12:30:35;19.90;99.90
13970;DHT22;7057;49.984;8.404;2023-05-08T12:33:03;20.10;99.90
13970;DHT22;7057;49.984;8.404;2023-05-08T12:35:31;20.40;99.90
13970;DHT22;7057;49.984;8.404;2023-05-08T12:38:00;20.60;99.90
13970;DHT22;7057;49.984;8.404;2023-05-08T12:40:29;20.60;99.90
13970;DHT22;7057;49.984;8.404;2023-05-08T12:42:59;20.50;99.90
13970;DHT22;7057;49.984;8.404;2023-05-08T12:45:29;20.60;99.90
13970;DHT22;7057;49.984;8.404;2023-05-08T12:47:59;20.40;99.90
13970;DHT22;7057;49.984;8.404;2023-05-08T12:50:27;20.40;99.90
13970;DHT22;7057;49.984;8.404;2023-05-08T12:53:01;20.40;99.90
13970;DHT22;7057;49.984;8.404;2023-05-08T12:55:31;20.40;99.90
13970;DHT22;7057;49.984;8.404;2023-05-08T12:58:00;20.50;99.90
13970;DHT22;7057;49.984;8.404;2023-05-08T13:00:35;20.10;99.90
13970;DHT22;7057;49.984;8.404;2023-05-08T13:03:04;20.10;99.90
13970;DHT22;7057;49.984;8.404;2023-05-08T13:05:33;20.00;99.90
13970;DHT22;7057;49.984;8.404;2023-05-08T13:08:03;19.80;99.90
13970;DHT22;7057;49.984;8.404;2023-05-08T13:10:46;19.60;99.90
13970;DHT22;7057;49.984;8.404;2023-05-08T13:13:15;19.70;99.90
13970;DHT22;7057;49.984;8.404;2023-05-08T13:15:44;19.60;99.90
13970;DHT22;7057;49.984;8.404;2023-05-08T13:18:11;19.70;99.90
13970;DHT22;7057;49.984;8.404;2023-05-08T13:20:39;19.80;99.90
13970;DHT22;7057;49.984;8.404;2023-05-08T13:23:06;19.70;99.90
13970;DHT22;7057;49.984;8.404;2023-05-08T13:25:35;19.80;99.90
13970;DHT22;7057;49.984;8.404;2023-05-08T13:28:03;19.80;99.90
13970;DHT22;7057;49.984;8.404;2023-05-08T13:30:30;19.90;99.90
13970;DHT22;7057;49.984;8.404;2023-05-08T13:32:59;19.90;99.90
13970;DHT22;7057;49.984;8.404;2023-05-08T13:35:27;19.90;99.90
13970;DHT22;7057;49.984;8.404;2023-05-08T13:37:54;20.00;99.90
13970;DHT22;7057;49.984;8.404;2023-05-08T13:40:23;20.10;99.90
13970;DHT22;7057;49.984;8.404;2023-05-08T13:42:50;20.00;99.90
13970;DHT22;7057;49.984;8.404;2023-05-08T13:45:18;20.20;99.90
13970;DHT22;7057;49.984;8.404;2023-05-08T13:47:46;20.20;99.90
13970;DHT22;7057;49.984;8.404;2023-05-08T13:50:15;20.30;99.90
13970;DHT22;7057;49.984;8.404;2023-05-08T13:52:43;20.40;99.90
13970;DHT22;7057;49.984;8.404;2023-05-08T13:55:11;20.50;99.90
13970;DHT22;7057;49.984;8.404;2023-05-08T13:57:39;20.50;99.90
13970;DHT22;7057;49.984;8.404;2023-05-08T14:00:10;20.50;99.90
13970;DHT22;7057;49.984;8.404;2023-05-08T14:02:37;20.30;99.90
13970;DHT22;7057;49.984;8.404;2023-05-08T14:05:05;20.40;99.90
13970;DHT22;7057;49.984;8.404;2023-05-08T14:07:35;20.80;99.90
13970;DHT22;7057;49.984;8.404;2023-05-08T14:10:03;21.00;99.90
13970;DHT22;7057;49.984;8.404;2023-05-08T14:12:30;21.20;99.90
13970;DHT22;7057;49.984;8.404;2023-05-08T14:15:01;21.00;99.90
13970;DHT22;7057;49.984;8.404;2023-05-08T14:17:29;21.00;99.90
13970;DHT22;7057;49.984;8.404;2023-05-08T14:19:56;21.20;99.90
13970;DHT22;7057;49.984;8.404;2023-05-08T14:22:23;21.00;99.90
13970;DHT22;7057;49.984;8.404;2023-05-08T14:24:52;21.00;99.90
13970;DHT22;7057;49.984;8.404;2023-05-08T14:27:19;21.00;99.90
13970;DHT22;7057;49.984;8.404;2023-05-08T14:29:46;20.60;99.90
13970;DHT22;7057;49.984;8.404;2023-05-08T14:32:14;20.40;99.90
13970;DHT22;7057;49.984;8.404;2023-05-08T14:34:41;20.30;99.90
13970;DHT22;7057;49.984;8.404;2023-05-08T14:37:08;20.10;99.90
13970;DHT22;7057;49.984;8.404;2023-05-08T14:39:36;20.30;99.90
13970;DHT22;7057;49.984;8.404;2023-05-08T14:42:04;20.30;99.90
13970;DHT22;7057;49.984;8.404;2023-05-08T14:44:31;20.50;99.90
13970;DHT22;7057;49.984;8.404;2023-05-08T14:46:59;20.60;99.90
13970;DHT22;7057;49.984;8.404;2023-05-08T14:49:26;20.70;99.90
13970;DHT22;7057;49.984;8.404;2023-05-08T14:51:54;20.70;99.90
13970;DHT22;7057;49.984;8.404;2023-05-08T14:54:21;20.90;99.90
13970;DHT22;7057;49.984;8.404;2023-05-08T14:56:48;21.20;99.90
13970;DHT22;7057;49.984;8.404;2023-05-08T14:59:17;21.10;99.90
13970;DHT22;7057;49.984;8.404;2023-05-08T15:01:44;21.20;99.90
13970;DHT22;7057;49.984;8.404;2023-05-08T15:04:11;21.50;99.90
13970;DHT22;7057;49.984;8.404;2023-05-08T15:06:38;21.70;99.90
13970;DHT22;7057;49.984;8.404;2023-05-08T15:09:07;21.90;99.90
13970;DHT22;7057;49.984;8.404;2023-05-08T15:11:34;22.10;99.90
13970;DHT22;7057;49.984;8.404;2023-05-08T15:14:02;22.10;99.90
13970;DHT22;7057;49.984;8.404;2023-05-08T15:16:30;22.20;99.90
13970;DHT22;7057;49.984;8.404;2023-05-08T15:18:58;22.00;99.90
13970;DHT22;7057;49.984;8.404;2023-05-08T15:21:26;22.00;99.90
13970;DHT22;7057;49.984;8.404;2023-05-08T15:23:53;22.00;99.90
13970;DHT22;7057;49.984;8.404;2023-05-08T15:26:21;21.70;99.90
13970;DHT22;7057;49.984;8.404;2023-05-08T15:28:48;21.70;99.90
13970;DHT22;7057;49.984;8.404;2023-05-08T15:31:15;21.60;99.90
13970;DHT22;7057;49.984;8.404;2023-05-08T15:33:44;21.50;99.90
13970;DHT22;7057;49.984;8.404;2023-05-08T15:36:13;21.50;99.90
13970;DHT22;7057;49.984;8.404;2023-05-08T15:38:40;21.30;99.90
13970;DHT22;7057;49.984;8.404;2023-05-08T15:41:08;21.30;99.90
13970;DHT22;7057;49.984;8.404;2023-05-08T15:43:37;21.40;99.90
13970;DHT22;7057;49.984;8.404;2023-05-08T15:46:04;21.50;99.90
13970;DHT22;7057;49.984;8.404;2023-05-08T15:48:31;21.30;99.90
13970;DHT22;7057;49.984;8.404;2023-05-08T15:51:00;20.90;99.90
13970;DHT22;7057;49.984;8.404;2023-05-08T15:53:27;20.90;99.90
13970;DHT22;7057;49.984;8.404;2023-05-08T15:55:54;20.90;99.90
13970;DHT22;7057;49.984;8.404;2023-05-08T15:58:21;21.00;99.90